Time;durP1;ratioP1;P1;durP2;ratioP2;P2;SDS_P1;SDS_P2;PMS_P1;PMS_P2;Temp;Humidity;BMP_temperature;BMP_pressure;BME280_temperature;BME280_humidity;BME280_pressure;Samples;Min_cycle;Max_cycle;Signal;HPM_P1;HPM_P2
2023/06/29 00:01:13;;;;;;;6.68;3.28;;;;;;;21.78;57.47;101317.25;4977581;28;98729;-67
2023/06/29 00:03:41;;;;;;;7.55;2.88;;;;;;;21.94;56.72;101316.97;4977608;28;98596;-68
2023/06/29 00:06:08;;;;;;;4.50;2.88;;;;;;;21.88;56.98;101312.03;4978452;28;98838;-67
2023/06/29 00:08:36;;;;;;;8.57;3.03;;;;;;;21.84;57.19;101310.56;4989402;28;99522;-67
2023/06/29 00:11:04;;;;;;;3.58;2.63;;;;;;;21.95;57.16;101307.91;4977686;28;96948;-67
2023/06/29 00:13:31;;;;;;;5.88;2.70;;;;;;;21.78;57.65;101306.50;4977740;28;102030;-68
2023/06/29 00:15:57;;;;;;;9.82;2.72;;;;;;;22.06;56.64;101299.06;4978468;28;99325;-67
2023/06/29 00:18:24;;;;;;;3.70;2.70;;;;;;;21.72;56.97;101301.56;4978166;28;97684;-66
2023/06/29 00:20:51;;;;;;;5.82;3.10;;;;;;;21.86;57.07;101304.06;4982078;28;98605;-67
2023/06/29 00:23:17;;;;;;;7.10;2.88;;;;;;;21.75;57.46;101306.69;4977704;28;98819;-67
2023/06/29 00:25:47;;;;;;;7.15;2.70;;;;;;;21.69;57.94;101306.28;4978367;28;98893;-68
2023/06/29 00:28:13;;;;;;;8.93;2.97;;;;;;;21.68;58.25;101305.44;4983179;28;98872;-67
2023/06/29 00:30:39;;;;;;;4.57;2.35;;;;;;;21.69;58.55;101309.84;4981594;28;98004;-66
2023/06/29 00:33:06;;;;;;;6.25;2.97;;;;;;;21.76;58.39;101311.13;4983449;28;98451;-66
2023/06/29 00:35:32;;;;;;;6.28;2.85;;;;;;;21.70;58.83;101308.00;4982821;28;100213;-66
2023/06/29 00:37:58;;;;;;;6.07;2.88;;;;;;;21.85;57.77;101302.38;4982112;28;98487;-66
2023/06/29 00:40:25;;;;;;;6.15;3.03;;;;;;;21.67;58.69;101298.31;4988445;28;96930;-66
2023/06/29 00:42:55;;;;;;;7.65;2.65;;;;;;;21.66;58.72;101301.97;4994149;28;99052;-66
2023/06/29 00:45:21;;;;;;;7.78;2.90;;;;;;;21.52;58.97;101303.97;5004174;28;99333;-66
2023/06/29 00:47:47;;;;;;;5.80;2.95;;;;;;;21.62;58.70;101294.25;4991492;28;96800;-67
2023/06/29 00:50:14;;;;;;;6.22;3.28;;;;;;;21.40;59.46;101295.81;4987221;28;97681;-67
2023/06/29 00:52:41;;;;;;;5.65;2.70;;;;;;;21.31;59.74;101298.31;4990611;28;98771;-67
2023/06/29 00:55:09;;;;;;;5.43;2.80;;;;;;;21.38;59.30;101291.53;4985473;28;97695;-67
2023/06/29 00:57:35;;;;;;;6.22;2.70;;;;;;;21.52;59.08;101296.78;4990471;28;96788;-66
2023/06/29 01:00:05;;;;;;;5.35;2.70;;;;;;;21.75;57.88;101287.88;4989100;28;97201;-66
2023/06/29 01:02:35;;;;;;;6.38;2.38;;;;;;;21.63;58.44;101291.47;4983390;28;99293;-66
2023/06/29 01:05:03;;;;;;;5.05;2.55;;;;;;;21.61;58.20;101288.03;4985524;28;97652;-66
2023/06/29 01:07:35;;;;;;;4.75;2.83;;;;;;;21.83;57.56;101277.41;4988950;28;96786;-67
2023/06/29 01:10:03;;;;;;;8.18;3.30;;;;;;;21.82;57.42;101280.22;4991526;28;98184;-67
2023/06/29 01:12:30;;;;;;;9.48;3.17;;;;;;;21.71;57.86;101286.41;4985520;28;102032;-67
2023/06/29 01:14:57;;;;;;;7.80;3.08;;;;;;;21.44;58.57;101280.31;4980340;28;99154;-67
2023/06/29 01:17:28;;;;;;;7.70;3.20;;;;;;;21.50;58.58;101279.03;4988079;28;96836;-67
2023/06/29 01:19:56;;;;;;;5.18;2.60;;;;;;;21.29;59.12;101284.97;4993016;28;96829;-68
2023/06/29 01:22:28;;;;;;;6.47;3.08;;;;;;;21.16;60.33;101286.81;4989759;28;101127;-66
2023/06/29 01:24:56;;;;;;;5.65;2.40;;;;;;;21.20;60.45;101271.34;4986107;28;98969;-66
2023/06/29 01:27:22;;;;;;;5.20;2.80;;;;;;;21.20;60.72;101268.66;4985221;28;97311;-66
2023/06/29 01:29:53;;;;;;;5.05;3.10;;;;;;;20.98;61.72;101275.53;4990463;28;98111;-66
2023/06/29 01:32:19;;;;;;;6.47;3.10;;;;;;;20.77;62.74;101271.66;4988251;28;98906;-67
2023/06/29 01:34:46;;;;;;;6.55;2.90;;;;;;;21.12;61.67;101268.31;4993360;28;98748;-65
2023/06/29 01:37:17;;;;;;;4.63;2.80;;;;;;;20.99;61.96;101269.19;4989755;28;96702;-66
2023/06/29 01:39:48;;;;;;;4.40;2.90;;;;;;;20.93;62.28;101268.75;4990396;28;97886;-67
2023/06/29 01:42:18;;;;;;;10.00;3.72;;;;;;;21.09;61.57;101267.56;4990996;28;97677;-67
2023/06/29 01:44:45;;;;;;;6.10;2.70;;;;;;;20.97;62.36;101265.75;4995593;28;98872;-66
2023/06/29 01:47:13;;;;;;;4.10;2.40;;;;;;;21.04;62.16;101264.34;4984762;28;96918;-66
2023/06/29 01:49:40;;;;;;;7.53;3.38;;;;;;;20.95;62.25;101264.97;4985379;28;96877;-66
2023/06/29 01:52:07;;;;;;;6.30;3.38;;;;;;;21.03;61.85;101259.06;4981410;28;99137;-67
2023/06/29 01:54:34;;;;;;;4.43;3.15;;;;;;;20.76;62.25;101255.63;4978858;28;98323;-66
2023/06/29 01:57:00;;;;;;;6.05;2.88;;;;;;;20.91;61.36;101255.44;4980046;28;97793;-66
2023/06/29 01:59:28;;;;;;;6.13;3.10;;;;;;;20.86;61.80;101256.72;4980857;28;97149;-66
2023/06/29 02:01:54;;;;;;;7.22;3.05;;;;;;;20.82;62.04;101256.06;4979023;28;98801;-66
2023/06/29 02:04:21;;;;;;;6.93;3.17;;;;;;;20.72;63.17;101260.38;4978931;28;98924;-66
2023/06/29 02:06:47;;;;;;;8.63;3.58;;;;;;;20.69;63.34;101261.44;4979286;28;98339;-66
2023/06/29 02:09:13;;;;;;;6.22;3.15;;;;;;;20.82;63.17;101253.38;4979996;28;98788;-66
2023/06/29 02:11:40;;;;;;;9.15;3.30;;;;;;;20.74;63.48;101253.09;4977875;28;99131;-66
2023/06/29 02:14:06;;;;;;;7.50;3.38;;;;;;;20.57;63.98;101261.44;4979105;28;99005;-66
2023/06/29 02:16:34;;;;;;;5.43;3.10;;;;;;;20.64;63.78;101251.97;4980413;28;97623;-67
2023/06/29 02:19:00;;;;;;;4.80;2.92;;;;;;;20.60;63.64;101262.09;4979907;28;96933;-67
2023/06/29 02:21:26;;;;;;;6.38;3.30;;;;;;;20.36;64.15;101263.75;4985332;28;99009;-68
2023/06/29 02:23:53;;;;;;;6.78;3.08;;;;;;;20.48;63.77;101259.41;4985084;28;99144;-68
2023/06/29 02:26:19;;;;;;;7.65;2.95;;;;;;;20.59;63.40;101260.38;4990170;28;96729;-67
2023/06/29 02:28:46;;;;;;;6.13;3.05;;;;;;;20.48;63.55;101254.03;4983511;28;98917;-67
2023/06/29 02:31:12;;;;;;;7.60;3.13;;;;;;;20.66;63.23;101258.97;4979676;28;98975;-68
2023/06/29 02:33:40;;;;;;;5.47;3.53;;;;;;;20.73;62.58;101262.09;4989157;28;100354;-68
2023/06/29 02:36:06;;;;;;;7.55;3.78;;;;;;;20.67;62.74;101263.38;4991653;28;96775;-68
2023/06/29 02:38:33;;;;;;;9.88;3.15;;;;;;;20.26;63.65;101266.19;4992866;27;96914;-68
2023/06/29 02:40:59;;;;;;;6.47;3.03;;;;;;;20.61;62.72;101269.16;4981683;28;99166;-67
2023/06/29 02:43:25;;;;;;;7.32;3.65;;;;;;;20.62;62.60;101264.66;4978660;28;99032;-67
2023/06/29 02:45:52;;;;;;;5.38;3.38;;;;;;;20.51;63.64;101262.72;4987197;28;96942;-67
2023/06/29 02:48:18;;;;;;;13.60;3.20;;;;;;;20.54;63.55;101267.03;4988364;28;96813;-68
2023/06/29 02:50:46;;;;;;;5.22;3.25;;;;;;;20.22;64.91;101271.84;4994534;28;99404;-67
2023/06/29 02:53:16;;;;;;;7.93;3.22;;;;;;;20.42;64.43;101273.19;4984779;28;98966;-68
2023/06/29 02:55:42;;;;;;;5.03;2.90;;;;;;;20.21;65.05;101276.38;4977786;28;98245;-69
2023/06/29 02:58:08;;;;;;;9.13;3.78;;;;;;;20.28;64.30;101272.28;4993272;28;99156;-67
2023/06/29 03:00:35;;;;;;;6.57;3.20;;;;;;;20.52;63.59;101269.81;4987369;28;99055;-68
2023/06/29 03:03:01;;;;;;;5.60;3.45;;;;;;;20.48;63.34;101272.81;4987154;28;98937;-68
2023/06/29 03:05:27;;;;;;;5.60;3.08;;;;;;;20.51;63.54;101268.09;4978679;28;98532;-68
2023/06/29 03:07:55;;;;;;;6.68;3.25;;;;;;;20.36;64.21;101266.44;4990094;28;96953;-68
2023/06/29 03:10:21;;;;;;;8.43;3.40;;;;;;;20.39;64.37;101270.75;4985840;28;97906;-68
2023/06/29 03:12:47;;;;;;;6.88;2.90;;;;;;;20.26;64.79;101274.22;4988926;28;99160;-69
2023/06/29 03:15:14;;;;;;;8.63;3.13;;;;;;;20.32;64.95;101267.59;4991522;28;98886;-68
2023/06/29 03:17:40;;;;;;;6.95;3.45;;;;;;;20.25;64.90;101279.69;4993269;28;97946;-68
2023/06/29 03:20:07;;;;;;;7.20;3.42;;;;;;;20.42;64.32;101273.19;4982124;28;98904;-68
2023/06/29 03:22:34;;;;;;;6.72;3.22;;;;;;;20.26;64.69;101279.59;4985394;28;101535;-68
2023/06/29 03:25:03;;;;;;;5.45;3.30;;;;;;;20.57;63.78;101272.16;4993154;28;98369;-68
2023/06/29 03:27:29;;;;;;;6.03;3.20;;;;;;;20.54;64.04;101272.38;4980803;28;98599;-68
2023/06/29 03:29:56;;;;;;;6.13;3.28;;;;;;;20.60;63.87;101277.34;4993595;28;102148;-69
2023/06/29 03:32:22;;;;;;;9.55;3.20;;;;;;;20.50;64.38;101274.41;4985317;28;99152;-68
2023/06/29 03:34:48;;;;;;;4.53;3.10;;;;;;;20.44;65.04;101277.50;4982199;28;96882;-68
2023/06/29 03:37:15;;;;;;;4.60;3.10;;;;;;;20.54;64.34;101283.13;4980527;28;97569;-69
2023/06/29 03:39:41;;;;;;;8.63;3.38;;;;;;;20.71;64.28;101282.81;4987584;28;99028;-69
2023/06/29 03:42:09;;;;;;;5.55;3.25;;;;;;;20.50;64.26;101282.47;4982783;28;99042;-68
2023/06/29 03:44:36;;;;;;;7.03;3.00;;;;;;;20.51;64.78;101278.81;4981919;28;97734;-68
2023/06/29 03:47:02;;;;;;;9.90;3.30;;;;;;;20.70;64.23;101275.72;4980747;28;96904;-69
2023/06/29 03:49:29;;;;;;;7.38;3.55;;;;;;;20.79;63.92;101277.78;4986873;28;99108;-69
2023/06/29 03:51:55;;;;;;;6.72;3.15;;;;;;;20.85;63.55;101279.19;4983002;28;102597;-69
2023/06/29 03:54:21;;;;;;;8.15;3.58;;;;;;;21.17;62.54;101274.25;4982415;28;97791;-69
2023/06/29 03:56:48;;;;;;;10.30;4.03;;;;;;;21.36;61.86;101278.19;4977921;28;97736;-68
2023/06/29 03:59:15;;;;;;;11.93;4.10;;;;;;;21.34;61.44;101276.56;4989786;28;101850;-68
2023/06/29 04:01:41;;;;;;;10.20;3.38;;;;;;;21.47;61.16;101277.41;4998847;28;102594;-68
2023/06/29 04:04:08;;;;;;;7.78;3.97;;;;;;;21.61;60.25;101284.47;4992692;28;97249;-68
2023/06/29 04:06:34;;;;;;;7.88;4.13;;;;;;;21.75;59.79;101285.19;4996271;28;96852;-68
2023/06/29 04:09:00;;;;;;;5.07;2.95;;;;;;;21.74;60.56;101280.78;4985900;28;99090;-67
2023/06/29 04:11:27;;;;;;;7.43;3.15;;;;;;;22.22;58.40;101283.50;4992276;28;98837;-69
2023/06/29 04:13:53;;;;;;;8.02;3.40;;;;;;;22.33;57.02;101286.22;4988999;28;98897;-68
2023/06/29 04:16:21;;;;;;;5.18;3.47;;;;;;;22.54;56.67;101283.72;4987083;28;97143;-68
2023/06/29 04:18:47;;;;;;;7.13;2.78;;;;;;;22.69;55.38;101284.41;4986410;28;98948;-68
2023/06/29 04:21:13;;;;;;;6.25;3.35;;;;;;;22.60;55.39;101277.88;4992283;28;98904;-69
2023/06/29 04:23:40;;;;;;;6.57;3.03;;;;;;;22.88;54.71;101282.88;4989247;28;96854;-68
2023/06/29 04:26:07;;;;;;;6.13;3.15;;;;;;;22.53;56.17;101282.00;4992280;28;97015;-68
2023/06/29 04:28:35;;;;;;;7.55;3.50;;;;;;;22.44;57.99;101283.59;4984272;28;99937;-68
2023/06/29 04:31:01;;;;;;;8.68;4.18;;;;;;;22.76;57.46;101278.44;4989305;28;97502;-69
2023/06/29 04:33:29;;;;;;;10.02;4.00;;;;;;;22.86;55.52;101281.25;4990652;28;97506;-68
2023/06/29 04:35:55;;;;;;;4.25;2.83;;;;;;;22.79;55.66;101278.19;4993842;28;96910;-68
2023/06/29 04:38:25;;;;;;;5.93;3.35;;;;;;;22.45;57.17;101273.69;4997285;28;99051;-68
2023/06/29 04:40:53;;;;;;;5.60;2.85;;;;;;;22.63;56.41;101278.50;4985328;28;98904;-68
2023/06/29 04:43:21;;;;;;;5.65;3.20;;;;;;;22.66;55.74;101280.09;4988254;28;96827;-68
2023/06/29 04:45:47;;;;;;;5.15;3.33;;;;;;;22.68;55.98;101270.06;4988546;28;97679;-68
2023/06/29 04:48:15;;;;;;;7.03;3.28;;;;;;;22.85;55.61;101271.47;4988923;28;99125;-68
2023/06/29 04:50:42;;;;;;;4.18;2.65;;;;;;;23.10;54.31;101273.97;4993602;28;98839;-67
2023/06/29 04:53:11;;;;;;;5.45;2.90;;;;;;;23.10;54.03;101267.72;4994750;28;99591;-68
2023/06/29 04:55:38;;;;;;;4.18;2.90;;;;;;;23.41;52.98;101270.50;4988538;28;96947;-68
2023/06/29 04:58:04;;;;;;;7.45;2.83;;;;;;;23.65;53.02;101266.81;4995886;28;99364;-68
2023/06/29 05:00:31;;;;;;;4.68;2.70;;;;;;;23.99;51.31;101263.03;4984780;28;99051;-69
2023/06/29 05:02:57;;;;;;;8.85;3.10;;;;;;;23.90;51.39;101263.81;4990081;28;97342;-68
2023/06/29 05:05:24;;;;;;;6.45;2.72;;;;;;;24.70;50.37;101263.34;4989933;28;96925;-68
2023/06/29 05:07:51;;;;;;;6.32;2.72;;;;;;;25.85;46.39;101268.41;4988665;28;99205;-67
2023/06/29 05:10:18;;;;;;;8.23;3.17;;;;;;;26.27;44.93;101261.75;4990140;28;98553;-68
2023/06/29 05:12:44;;;;;;;5.97;2.28;;;;;;;26.30;43.90;101266.06;4988572;28;97248;-67
2023/06/29 05:15:11;;;;;;;3.97;2.30;;;;;;;26.68;43.31;101267.84;4993429;28;96849;-68
2023/06/29 05:17:37;;;;;;;8.68;2.90;;;;;;;26.67;43.06;101266.16;4983958;28;99219;-68
2023/06/29 05:20:04;;;;;;;6.13;2.83;;;;;;;26.81;42.38;101265.69;4983274;28;97823;-68
2023/06/29 05:22:31;;;;;;;6.95;3.00;;;;;;;26.84;42.22;101265.41;4982273;28;98278;-69
2023/06/29 05:24:59;;;;;;;6.68;2.40;;;;;;;26.76;41.58;101268.00;4986003;28;97280;-69
2023/06/29 05:27:25;;;;;;;6.55;2.83;;;;;;;26.29;42.38;101262.47;4992976;28;98847;-69
2023/06/29 05:29:52;;;;;;;6.82;2.80;;;;;;;26.14;43.11;101266.56;4987382;28;98874;-68
2023/06/29 05:32:18;;;;;;;6.10;2.65;;;;;;;26.39;43.05;101266.03;4993820;28;96865;-68
2023/06/29 05:34:44;;;;;;;6.03;2.60;;;;;;;26.20;42.94;101268.72;4992665;28;97317;-68
2023/06/29 05:37:11;;;;;;;3.72;2.55;;;;;;;26.03;44.06;101270.28;4990929;28;98130;-69
2023/06/29 05:39:37;;;;;;;6.05;2.47;;;;;;;26.04;44.26;101263.88;4999114;28;98969;-68
2023/06/29 05:42:06;;;;;;;7.07;3.13;;;;;;;26.17;43.72;101267.16;4993003;28;96901;-68
2023/06/29 05:44:32;;;;;;;5.40;2.92;;;;;;;26.06;43.92;101269.13;4986114;28;98776;-68
2023/06/29 05:46:59;;;;;;;9.60;2.60;;;;;;;25.73;44.09;101255.00;4978406;28;99064;-68
2023/06/29 05:49:25;;;;;;;5.53;2.42;;;;;;;25.59;45.06;101268.09;4979889;28;97926;-69
2023/06/29 05:51:51;;;;;;;8.98;2.53;;;;;;;25.26;44.11;101255.69;4980300;28;96841;-68
2023/06/29 05:54:18;;;;;;;4.35;2.28;;;;;;;25.50;44.68;101260.75;4981266;28;98492;-69
2023/06/29 05:56:45;;;;;;;5.85;2.42;;;;;;;25.48;44.26;101262.72;4980847;28;99104;-69
2023/06/29 05:59:12;;;;;;;6.90;3.53;;;;;;;25.82;43.95;101265.97;4986093;28;99948;-69
2023/06/29 06:01:39;;;;;;;13.35;2.30;;;;;;;25.98;43.37;101266.31;4978870;28;99056;-69
2023/06/29 06:04:05;;;;;;;6.72;2.22;;;;;;;26.11;43.09;101264.16;4981659;28;97481;-68
2023/06/29 06:06:32;;;;;;;15.20;4.97;;;;;;;26.14;43.25;101261.16;4989606;28;98966;-68
2023/06/29 06:08:59;;;;;;;2.65;2.03;;;;;;;26.13;42.54;101267.56;4981130;28;98960;-69
2023/06/29 06:11:25;;;;;;;6.40;2.50;;;;;;;26.24;42.49;101270.19;4978399;28;97789;-68
2023/06/29 06:13:52;;;;;;;5.82;2.15;;;;;;;26.07;42.47;101268.13;4980621;28;97564;-71
2023/06/29 06:16:20;;;;;;;6.68;2.45;;;;;;;26.26;41.99;101270.88;4979521;28;102291;-67
2023/06/29 06:18:46;;;;;;;5.00;2.33;;;;;;;26.19;42.11;101269.72;4981020;28;99272;-69
2023/06/29 06:21:12;;;;;;;9.13;2.35;;;;;;;26.04;42.59;101265.72;4980441;28;98893;-68
2023/06/29 06:23:39;;;;;;;8.35;2.47;;;;;;;26.10;41.89;101259.75;4985125;28;96846;-68
2023/06/29 06:26:05;;;;;;;10.00;2.63;;;;;;;25.99;42.15;101266.13;4985635;28;99424;-69
2023/06/29 06:28:31;;;;;;;7.72;2.40;;;;;;;26.30;41.49;101266.91;4983528;28;98516;-70
2023/06/29 06:30:58;;;;;;;3.60;1.98;;;;;;;26.66;40.98;101253.59;4987545;28;98246;-68
2023/06/29 06:33:30;;;;;;;9.55;2.42;;;;;;;27.14;40.08;101259.75;4979924;28;96963;-70
2023/06/29 06:35:56;;;;;;;7.53;2.20;;;;;;;27.66;38.72;101260.09;4980609;28;99164;-72
2023/06/29 06:38:25;;;;;;;5.18;2.20;;;;;;;27.86;37.51;101252.69;4992534;28;99941;-69
2023/06/29 06:40:55;;;;;;;8.32;2.47;;;;;;;28.38;36.75;101253.72;4988774;28;98800;-69
2023/06/29 06:43:22;;;;;;;5.22;2.05;;;;;;;28.42;35.71;101255.94;4983469;28;99408;-70
2023/06/29 06:45:48;;;;;;;14.07;1.98;;;;;;;28.35;35.84;101254.03;4981357;28;97984;-68
2023/06/29 06:48:14;;;;;;;5.57;1.70;;;;;;;28.32;35.62;101254.34;4985024;28;100643;-68
2023/06/29 06:50:42;;;;;;;4.18;1.95;;;;;;;28.41;35.54;101251.53;4987904;28;96871;-67
2023/06/29 06:53:08;;;;;;;9.73;1.85;;;;;;;28.70;35.18;101253.94;4993608;28;97116;-68
2023/06/29 06:55:35;;;;;;;4.45;1.77;;;;;;;28.43;35.55;101248.66;4985133;28;98915;-68
2023/06/29 06:58:01;;;;;;;4.90;2.00;;;;;;;28.65;35.36;101256.31;4988453;28;98753;-68
2023/06/29 07:00:28;;;;;;;5.55;1.65;;;;;;;28.41;35.35;101254.25;4980546;28;98831;-67
2023/06/29 07:02:54;;;;;;;3.10;1.65;;;;;;;28.56;34.66;101251.81;4984609;28;97367;-68
2023/06/29 07:05:20;;;;;;;4.13;1.67;;;;;;;28.34;34.79;101249.59;4983667;28;99081;-67
2023/06/29 07:07:51;;;;;;;4.82;2.20;;;;;;;28.06;35.13;101254.25;4988258;28;98884;-69
2023/06/29 07:10:17;;;;;;;4.07;1.77;;;;;;;27.72;35.45;101262.19;4987473;28;97690;-68
2023/06/29 07:12:44;;;;;;;3.08;1.50;;;;;;;27.55;35.92;101254.88;4988873;28;97495;-68
2023/06/29 07:15:10;;;;;;;3.75;1.38;;;;;;;27.51;36.37;101256.16;4984395;28;99364;-69
2023/06/29 07:17:36;;;;;;;5.22;2.38;;;;;;;27.80;36.09;101256.88;4984380;28;98821;-69
2023/06/29 07:20:03;;;;;;;6.30;1.60;;;;;;;27.70;36.70;101256.91;4986915;28;97949;-67
2023/06/29 07:22:30;;;;;;;10.90;1.85;;;;;;;27.64;36.54;101243.09;4984792;28;97766;-67
2023/06/29 07:24:58;;;;;;;3.25;1.50;;;;;;;27.54;37.75;101245.88;4988317;28;99190;-68
2023/06/29 07:27:25;;;;;;;10.10;1.85;;;;;;;27.48;37.86;101248.31;4994091;28;98964;-67
2023/06/29 07:29:51;;;;;;;6.47;1.73;;;;;;;27.45;37.94;101248.59;4983415;28;96869;-69
2023/06/29 07:32:17;;;;;;;9.70;1.80;;;;;;;27.24;38.94;101252.41;4990350;28;96810;-68
2023/06/29 07:34:44;;;;;;;4.28;1.50;;;;;;;27.27;38.50;101235.84;4987419;28;99324;-70
2023/06/29 07:37:10;;;;;;;7.13;1.98;;;;;;;27.40;38.81;101240.94;4994063;28;100868;-69
2023/06/29 07:39:36;;;;;;;4.68;1.95;;;;;;;27.42;38.34;101246.22;4990140;28;96894;-70
2023/06/29 07:42:05;;;;;;;4.57;1.58;;;;;;;27.45;38.61;101243.19;4988055;28;98658;-71
2023/06/29 07:44:31;;;;;;;8.27;1.98;;;;;;;27.58;37.94;101249.13;4993091;28;97801;-70
2023/06/29 07:46:58;;;;;;;5.10;1.90;;;;;;;27.57;38.17;101244.75;4984118;28;99064;-70
2023/06/29 07:49:25;;;;;;;5.18;1.88;;;;;;;27.67;37.92;101242.81;4990389;28;98635;-70
2023/06/29 07:51:51;;;;;;;5.63;1.83;;;;;;;27.75;37.55;101240.19;4987973;28;96945;-70
2023/06/29 07:54:18;;;;;;;3.58;1.58;;;;;;;27.84;36.53;101244.69;4989545;28;99310;-71
2023/06/29 07:56:44;;;;;;;4.13;1.75;;;;;;;27.77;36.45;101240.88;4988900;28;99176;-71
2023/06/29 07:59:12;;;;;;;4.38;1.60;;;;;;;27.65;36.58;101233.94;4990474;28;97375;-71
2023/06/29 08:01:38;;;;;;;4.88;1.77;;;;;;;27.96;36.55;101243.44;4984447;28;97081;-71
2023/06/29 08:04:05;;;;;;;3.03;1.40;;;;;;;27.67;36.81;101238.22;4993170;28;98713;-70
2023/06/29 08:06:31;;;;;;;5.88;1.85;;;;;;;27.77;37.13;101246.28;4991519;28;98745;-71
2023/06/29 08:08:58;;;;;;;4.20;2.00;;;;;;;27.74;36.56;101238.47;4988989;28;97679;-71
2023/06/29 08:11:24;;;;;;;4.40;1.40;;;;;;;27.64;36.35;101233.09;4987011;28;100405;-73
2023/06/29 08:13:50;;;;;;;2.90;1.20;;;;;;;27.88;36.32;101239.81;4986336;28;99236;-71
2023/06/29 08:16:18;;;;;;;5.40;1.58;;;;;;;27.98;36.30;101233.28;4987987;28;98777;-70
2023/06/29 08:18:44;;;;;;;5.30;1.20;;;;;;;28.15;36.05;101231.63;4986113;28;96961;-71
2023/06/29 08:21:11;;;;;;;6.50;1.58;;;;;;;28.23;35.76;101225.38;4984733;28;97291;-71
2023/06/29 08:23:37;;;;;;;5.60;1.30;;;;;;;28.29;35.37;101230.22;4992498;28;99190;-70
2023/06/29 08:26:04;;;;;;;3.30;1.40;;;;;;;28.20;35.30;101221.13;4987807;28;98107;-70
2023/06/29 08:28:31;;;;;;;4.75;1.48;;;;;;;28.13;35.29;101231.72;4984622;28;99001;-70
2023/06/29 08:30:57;;;;;;;3.75;1.40;;;;;;;28.16;36.02;101235.19;4983409;28;97941;-71
2023/06/29 08:33:25;;;;;;;3.75;2.05;;;;;;;28.10;36.25;101233.91;4982972;28;99508;-71
2023/06/29 08:35:52;;;;;;;4.95;1.30;;;;;;;28.02;35.87;101237.41;4979342;28;98977;-71
2023/06/29 08:38:18;;;;;;;2.53;2.08;;;;;;;27.91;35.82;101240.34;4977470;28;98315;-70
2023/06/29 08:40:46;;;;;;;2.55;1.50;;;;;;;27.93;36.56;101229.31;4979305;28;99620;-70
2023/06/29 08:43:15;;;;;;;4.25;1.52;;;;;;;28.16;36.29;101229.75;4981005;28;99673;-70
2023/06/29 08:45:42;;;;;;;5.70;1.40;;;;;;;28.25;36.61;101234.22;4981753;28;101239;-68
2023/06/29 08:48:10;;;;;;;2.67;2.10;;;;;;;28.41;36.04;101228.94;4979653;28;98949;-70
2023/06/29 08:50:44;;;;;;;4.68;1.70;;;;;;;28.27;36.63;101234.94;4975755;28;97399;-70
2023/06/29 08:53:11;;;;;;;6.22;1.60;;;;;;;28.36;35.82;101229.41;4979622;28;100608;-70
2023/06/29 08:55:39;;;;;;;6.20;1.55;;;;;;;28.32;35.96;101227.16;4980764;28;99025;-72
2023/06/29 08:58:06;;;;;;;3.08;1.27;;;;;;;28.45;35.45;101222.16;4979341;28;99663;-70
2023/06/29 09:00:33;;;;;;;4.57;1.60;;;;;;;28.52;35.35;101225.97;4976958;28;98937;-70
2023/06/29 09:02:59;;;;;;;5.40;1.40;;;;;;;28.62;35.57;101218.53;4977446;28;98952;-70
2023/06/29 09:05:26;;;;;;;4.82;1.23;;;;;;;28.81;34.52;101223.81;4980856;28;99168;-69
2023/06/29 09:07:54;;;;;;;8.40;1.58;;;;;;;28.51;35.11;101225.09;4978133;28;98438;-71
2023/06/29 09:10:22;;;;;;;4.97;1.40;;;;;;;28.65;34.81;101220.97;4976372;28;97620;-69
2023/06/29 09:12:49;;;;;;;2.80;1.35;;;;;;;28.43;34.82;101225.03;4979731;28;98879;-70
2023/06/29 09:15:16;;;;;;;2.65;1.60;;;;;;;28.36;35.37;101217.66;4979579;28;98927;-70
2023/06/29 09:17:45;;;;;;;3.70;1.10;;;;;;;28.46;35.30;101218.44;4979442;28;99009;-74
2023/06/29 09:20:15;;;;;;;3.88;1.38;;;;;;;28.10;35.30;101226.59;4978970;28;97780;-70
2023/06/29 09:22:42;;;;;;;3.05;1.55;;;;;;;28.23;35.32;101222.66;4978426;28;99086;-70
2023/06/29 09:25:11;;;;;;;4.28;1.25;;;;;;;28.18;35.38;101219.56;4980436;28;101888;-70
2023/06/29 09:27:38;;;;;;;2.97;1.50;;;;;;;28.28;35.28;101223.91;4979306;28;97543;-70
2023/06/29 09:30:06;;;;;;;2.63;1.38;;;;;;;28.82;34.64;101214.63;4975964;28;97904;-70
2023/06/29 09:32:36;;;;;;;1.92;1.15;;;;;;;29.06;34.23;101221.22;4977425;28;101303;-71
2023/06/29 09:35:07;;;;;;;3.28;1.55;;;;;;;29.22;34.01;101221.28;4980859;28;99294;-71
2023/06/29 09:37:34;;;;;;;3.80;1.60;;;;;;;29.42;34.67;101220.03;4988091;28;97128;-71
2023/06/29 09:40:04;;;;;;;3.80;1.83;;;;;;;29.26;34.22;101211.78;4988042;28;97367;-70
2023/06/29 09:42:36;;;;;;;2.53;1.20;;;;;;;29.59;34.13;101212.78;4991982;28;99422;-71
2023/06/29 09:45:04;;;;;;;4.43;1.95;;;;;;;29.64;34.57;101216.72;4991846;28;100423;-72
2023/06/29 09:47:31;;;;;;;5.20;1.50;;;;;;;29.73;33.84;101211.28;4989870;28;97402;-72
2023/06/29 09:49:57;;;;;;;10.52;2.20;;;;;;;29.47;34.69;101211.41;4990273;28;98241;-72
2023/06/29 09:52:24;;;;;;;6.20;1.23;;;;;;;29.62;33.85;101207.00;4986119;28;98984;-70
2023/06/29 09:54:50;;;;;;;7.70;1.67;;;;;;;29.54;34.53;101206.97;4980360;28;98825;-71
2023/06/29 09:57:19;;;;;;;3.67;1.40;;;;;;;29.35;34.46;101205.38;4989476;28;96897;-73
2023/06/29 09:59:49;;;;;;;5.75;1.60;;;;;;;29.53;34.31;101203.41;4986440;28;97430;-74
2023/06/29 10:02:17;;;;;;;4.10;1.75;;;;;;;29.72;34.47;101205.00;4991123;28;98891;-73
2023/06/29 10:04:44;;;;;;;3.15;1.52;;;;;;;29.92;33.91;101202.84;4989512;28;98896;-71
2023/06/29 10:07:15;;;;;;;2.13;1.40;;;;;;;29.90;34.48;101202.97;4992372;28;97351;-71
2023/06/29 10:09:43;;;;;;;2.63;1.48;;;;;;;29.74;33.97;101197.47;4989822;28;96868;-73
2023/06/29 10:12:11;;;;;;;9.30;1.70;;;;;;;30.21;33.27;101199.59;4987794;28;99162;-72
2023/06/29 10:14:39;;;;;;;6.28;1.55;;;;;;;30.22;33.40;101193.13;4989632;28;98845;-72
2023/06/29 10:17:12;;;;;;;4.13;1.52;;;;;;;30.35;33.50;101194.31;4988539;28;97668;-71
2023/06/29 10:19:41;;;;;;;2.95;1.35;;;;;;;30.17;32.36;101193.66;4985032;28;96958;-72
2023/06/29 10:22:12;;;;;;;2.42;1.30;;;;;;;30.46;32.83;101187.63;4986177;28;101244;-71
2023/06/29 10:24:43;;;;;;;2.92;1.83;;;;;;;30.48;33.08;101188.31;4987981;28;98788;-70
2023/06/29 10:27:11;;;;;;;3.67;1.48;;;;;;;30.53;32.43;101185.09;4993127;28;97240;-72
2023/06/29 10:29:43;;;;;;;3.70;1.27;;;;;;;30.57;31.97;101178.31;4991288;28;97208;-74
2023/06/29 10:32:30;;;;;;;3.72;1.65;;;;;;;30.54;31.26;101176.75;4991881;28;98848;-72
2023/06/29 10:35:08;;;;;;;4.57;1.40;;;;;;;31.16;31.21;101177.78;4989790;28;99003;-71
2023/06/29 10:37:36;;;;;;;2.25;1.30;;;;;;;30.86;31.47;101175.81;4994757;28;97730;-72
2023/06/29 10:40:06;;;;;;;2.88;1.40;;;;;;;31.38;30.68;101175.28;4992333;28;96951;-73
2023/06/29 10:42:53;;;;;;;3.40;1.50;;;;;;;31.32;30.26;101176.84;4992909;28;99354;-72
2023/06/29 10:45:32;;;;;;;1.77;1.25;;;;;;;30.98;30.73;101165.41;4989182;28;98838;-72
2023/06/29 10:48:13;;;;;;;5.60;1.85;;;;;;;31.30;30.33;101172.63;4990241;28;96741;-72
2023/06/29 10:50:43;;;;;;;5.30;1.30;;;;;;;31.38;30.48;101170.66;4987560;28;97248;-73
2023/06/29 10:53:11;;;;;;;7.70;1.52;;;;;;;31.40;30.58;101165.88;4989637;28;98863;-72
2023/06/29 10:55:40;;;;;;;7.07;1.80;;;;;;;30.95;30.76;101161.13;4989178;28;98848;-72
2023/06/29 10:58:14;;;;;;;2.78;2.08;;;;;;;31.24;30.36;101164.09;4990177;28;97627;-71
2023/06/29 11:00:41;;;;;;;2.80;1.30;;;;;;;31.62;28.95;101150.59;4989004;28;96826;-73
2023/06/29 11:03:10;;;;;;;5.22;2.13;;;;;;;31.79;29.00;101152.16;4982269;28;98942;-72
2023/06/29 11:05:37;;;;;;;2.67;1.77;;;;;;;31.37;29.55;101155.34;4994329;28;98887;-73
2023/06/29 11:08:06;;;;;;;3.85;1.60;;;;;;;31.58;29.56;101152.78;4990983;28;97144;-72
2023/06/29 11:10:32;;;;;;;3.72;1.95;;;;;;;31.50;30.20;101152.00;4989544;28;97565;-72
2023/06/29 11:12:59;;;;;;;4.45;1.80;;;;;;;31.25;29.83;101143.94;4986979;28;98959;-73
2023/06/29 11:15:27;;;;;;;3.00;1.55;;;;;;;31.28;30.42;101146.34;4989307;28;99002;-71
2023/06/29 11:17:54;;;;;;;3.42;1.90;;;;;;;31.45;29.90;101140.75;4987768;28;97812;-72
2023/06/29 11:20:23;;;;;;;2.00;1.80;;;;;;;31.65;29.67;101142.03;4990315;28;98001;-72
2023/06/29 11:22:51;;;;;;;3.30;1.70;;;;;;;31.51;30.15;101140.88;4987150;28;98908;-72
2023/06/29 11:25:17;;;;;;;2.85;1.80;;;;;;;31.48;29.96;101143.13;4987849;28;99246;-73